Time,TemperatureF,DewpointF,PressureIn,WindDirection,WindDirectionDegrees,WindSpeedMPH,WindSpeedGustMPH,Humidity,HourlyPrecipIn,Conditions,Clouds,dailyrainin,SolarRadiationWatts/m^2,SoftwareType,DateUTC
2013-08-12 00:00:00,54.0,53.0,-100.00,NE,45,0.0,3.0,95,0.00,,,0.00,0.000000,,2013-08-12 04:00:00,
2013-08-12 00:02:00,54.0,53.0,-100.00,NE,45,0.0,3.0,95,0.00,,,0.00,0.000000,,2013-08-12 04:02:00,
2013-08-12 00:12:00,54.0,53.0,-100.00,NE,45,0.0,3.0,95,0.00,,,0.00,0.000000,,2013-08-12 04:12:00,
2013-08-12 00:22:00,54.0,53.0,-100.00,NE,45,0.0,3.0,95,0.00,,,0.00,0.000000,,2013-08-12 04:22:00,
2013-08-12 00:52:00,54.0,53.0,-100.00,ESE,112,1.0,2.0,97,0.00,,,0.00,0.000000,,2013-08-12 04:52:00,
2013-08-12 01:02:00,54.0,53.0,-100.00,ESE,112,1.0,2.0,97,0.00,,,0.00,0.000000,,2013-08-12 05:02:00,
2013-08-12 01:11:00,54.0,53.0,-100.00,ESE,112,1.0,2.0,97,0.00,,,0.00,0.000000,,2013-08-12 05:11:00,
2013-08-12 01:22:00,54.0,53.0,-100.00,ESE,112,1.0,2.0,97,0.00,,,0.00,0.000000,,2013-08-12 05:22:00,
2013-08-12 01:52:00,54.0,53.0,-100.00,ESE,113,1.0,2.0,98,0.00,,,0.00,0.000000,,2013-08-12 05:52:00,
2013-08-12 02:02:00,54.0,53.0,-100.00,ESE,113,1.0,2.0,98,0.00,,,0.00,0.000000,,2013-08-12 06:02:00,
2013-08-12 02:11:00,54.0,53.0,-100.00,ESE,113,1.0,2.0,98,0.00,,,0.00,0.000000,,2013-08-12 06:11:00,
2013-08-12 02:22:00,54.0,53.0,-100.00,ESE,113,1.0,2.0,98,0.00,,,0.00,0.000000,,2013-08-12 06:22:00,
2013-08-12 02:52:00,53.0,52.0,-100.00,WSW,241,0.0,2.0,98,0.00,,,0.00,0.000000,,2013-08-12 06:52:00,
2013-08-12 03:01:00,53.0,52.0,-100.00,WSW,241,0.0,2.0,98,0.00,,,0.00,0.000000,,2013-08-12 07:01:00,
2013-08-12 03:12:00,53.0,52.0,-100.00,WSW,241,0.0,2.0,98,0.00,,,0.00,0.000000,,2013-08-12 07:12:00,
2013-08-12 03:22:00,53.0,52.0,-100.00,WSW,241,0.0,2.0,98,0.00,,,0.00,0.000000,,2013-08-12 07:22:00,
2013-08-12 03:53:00,52.0,52.0,-100.00,ENE,70,0.0,3.0,99,0.00,,,0.00,0.000000,,2013-08-12 07:53:00,
2013-08-12 04:02:00,52.0,52.0,-100.00,ENE,70,0.0,3.0,99,0.00,,,0.00,0.000000,,2013-08-12 08:02:00,
2013-08-12 04:12:00,52.0,52.0,-100.00,ENE,70,0.0,3.0,99,0.00,,,0.00,0.000000,,2013-08-12 08:12:00,
2013-08-12 04:22:00,52.0,52.0,-100.00,ENE,70,0.0,3.0,99,0.00,,,0.00,0.000000,,2013-08-12 08:22:00,
2013-08-12 04:53:00,51.0,51.0,-100.00,SE,146,2.0,2.0,99,0.00,,,0.00,0.000000,,2013-08-12 08:53:00,
2013-08-12 05:02:00,51.0,51.0,-100.00,SE,146,2.0,2.0,99,0.00,,,0.00,0.000000,,2013-08-12 09:02:00,
2013-08-12 05:11:00,51.0,51.0,-100.00,SE,146,2.0,2.0,99,0.00,,,0.00,0.000000,,2013-08-12 09:11:00,
2013-08-12 05:22:00,51.0,51.0,-100.00,SE,146,2.0,2.0,99,0.00,,,0.00,0.000000,,2013-08-12 09:22:00,
2013-08-12 05:53:00,50.0,50.0,-100.00,SSE,149,0.0,2.0,99,0.00,,,0.00,0.000000,,2013-08-12 09:53:00,
2013-08-12 06:02:00,50.0,50.0,-100.00,SSE,149,0.0,2.0,99,0.00,,,0.00,0.000000,,2013-08-12 10:02:00,
2013-08-12 06:12:00,50.0,50.0,-100.00,SSE,149,0.0,2.0,99,0.00,,,0.00,0.000000,,2013-08-12 10:12:00,
2013-08-12 06:22:00,50.0,50.0,-100.00,SSE,149,0.0,2.0,99,0.00,,,0.00,0.000000,,2013-08-12 10:22:00,
2013-08-12 06:52:00,48.0,48.0,-100.00,SW,224,0.0,2.0,99,0.00,,,0.00,6.000000,,2013-08-12 10:52:00,
2013-08-12 07:02:00,48.0,48.0,-100.00,SW,224,0.0,2.0,99,0.00,,,0.00,6.000000,,2013-08-12 11:02:00,
2013-08-12 07:12:00,48.0,48.0,-100.00,SW,224,0.0,2.0,99,0.00,,,0.00,6.000000,,2013-08-12 11:12:00,
2013-08-12 07:22:00,48.0,48.0,-100.00,SW,224,0.0,2.0,99,0.00,,,0.00,6.000000,,2013-08-12 11:22:00,
2013-08-12 07:53:00,52.0,51.0,-100.00,North,350,1.0,3.0,97,0.00,,,0.00,71.000000,,2013-08-12 11:53:00,
2013-08-12 08:02:00,52.0,51.0,-100.00,North,350,1.0,3.0,97,0.00,,,0.00,71.000000,,2013-08-12 12:02:00,
2013-08-12 08:12:00,52.0,51.0,-100.00,North,350,1.0,3.0,97,0.00,,,0.00,71.000000,,2013-08-12 12:12:00,
2013-08-12 08:22:00,52.0,51.0,-100.00,North,350,1.0,3.0,97,0.00,,,0.00,71.000000,,2013-08-12 12:22:00,
2013-08-12 09:22:00,62.0,56.0,-100.00,East,85,3.0,9.0,81,0.00,,,0.00,275.000000,,2013-08-12 13:22:00,
2013-08-12 10:02:00,69.0,58.0,-100.00,East,99,2.0,5.0,67,0.00,,,0.00,455.000000,,2013-08-12 14:02:00,
2013-08-12 10:11:00,69.0,58.0,-100.00,East,99,2.0,5.0,67,0.00,,,0.00,455.000000,,2013-08-12 14:11:00,
2013-08-12 10:22:00,69.0,58.0,-100.00,East,99,2.0,5.0,67,0.00,,,0.00,455.000000,,2013-08-12 14:22:00,
2013-08-12 10:53:00,72.0,56.0,-100.00,West,279,4.0,7.0,57,0.00,,,0.00,579.000000,,2013-08-12 14:53:00,
2013-08-12 11:02:00,72.0,56.0,-100.00,West,279,4.0,7.0,57,0.00,,,0.00,579.000000,,2013-08-12 15:02:00,
2013-08-12 11:12:00,72.0,56.0,-100.00,West,279,4.0,7.0,57,0.00,,,0.00,579.000000,,2013-08-12 15:12:00,
2013-08-12 11:22:00,72.0,56.0,-100.00,West,279,4.0,7.0,57,0.00,,,0.00,579.000000,,2013-08-12 15:22:00,
2013-08-12 11:52:00,70.0,54.0,-100.00,West,262,3.0,8.0,57,0.00,,,0.00,513.000000,,2013-08-12 15:52:00,
2013-08-12 12:02:00,70.0,54.0,-100.00,West,262,3.0,8.0,57,0.00,,,0.00,513.000000,,2013-08-12 16:02:00,
2013-08-12 12:11:00,70.0,54.0,-100.00,West,262,3.0,8.0,57,0.00,,,0.00,513.000000,,2013-08-12 16:11:00,
2013-08-12 12:22:00,70.0,54.0,-100.00,West,262,3.0,8.0,57,0.00,,,0.00,513.000000,,2013-08-12 16:22:00,
2013-08-12 12:53:00,75.0,53.0,-100.00,WNW,298,4.0,10.0,47,0.00,,,0.00,584.000000,,2013-08-12 16:53:00,
2013-08-12 13:02:00,75.0,53.0,-100.00,WNW,298,4.0,10.0,47,0.00,,,0.00,584.000000,,2013-08-12 17:02:00,
2013-08-12 13:11:00,75.0,53.0,-100.00,WNW,298,4.0,10.0,47,0.00,,,0.00,584.000000,,2013-08-12 17:11:00,
2013-08-12 13:22:00,75.0,53.0,-100.00,WNW,298,4.0,10.0,47,0.00,,,0.00,584.000000,,2013-08-12 17:22:00,
2013-08-12 13:52:00,77.0,53.0,-100.00,NW,307,5.0,12.0,43,0.00,,,0.00,911.000000,,2013-08-12 17:52:00,
2013-08-12 14:02:00,77.0,53.0,-100.00,NW,307,5.0,12.0,43,0.00,,,0.00,911.000000,,2013-08-12 18:02:00,
2013-08-12 14:11:00,77.0,53.0,-100.00,NW,307,5.0,12.0,43,0.00,,,0.00,911.000000,,2013-08-12 18:11:00,
2013-08-12 14:24:00,77.0,53.0,-100.00,NW,307,5.0,12.0,43,0.00,,,0.00,911.000000,,2013-08-12 18:24:00,
2013-08-12 14:52:00,76.0,53.0,-100.00,West,277,4.0,10.0,45,0.00,,,0.00,759.000000,,2013-08-12 18:52:00,
2013-08-12 15:02:00,76.0,53.0,-100.00,West,277,4.0,10.0,45,0.00,,,0.00,759.000000,,2013-08-12 19:02:00,
2013-08-12 15:11:00,76.0,53.0,-100.00,West,277,4.0,10.0,45,0.00,,,0.00,759.000000,,2013-08-12 19:11:00,
2013-08-12 15:22:00,76.0,53.0,-100.00,West,277,4.0,10.0,45,0.00,,,0.00,759.000000,,2013-08-12 19:22:00,
2013-08-12 15:52:00,75.0,52.0,-100.00,WNW,287,4.0,12.0,45,0.00,,,0.00,548.000000,,2013-08-12 19:52:00,
2013-08-12 16:02:00,75.0,52.0,-100.00,WNW,287,4.0,12.0,45,0.00,,,0.00,548.000000,,2013-08-12 20:02:00,
2013-08-12 16:11:00,75.0,52.0,-100.00,WNW,287,4.0,12.0,45,0.00,,,0.00,548.000000,,2013-08-12 20:11:00,
2013-08-12 16:22:00,75.0,52.0,-100.00,WNW,287,4.0,12.0,45,0.00,,,0.00,548.000000,,2013-08-12 20:22:00,
2013-08-12 16:52:00,74.0,52.0,-100.00,West,273,4.0,11.0,47,0.00,,,0.00,461.000000,,2013-08-12 20:52:00,
2013-08-12 17:01:00,74.0,52.0,-100.00,West,273,4.0,11.0,47,0.00,,,0.00,461.000000,,2013-08-12 21:01:00,
2013-08-12 17:12:00,74.0,52.0,-100.00,West,273,4.0,11.0,47,0.00,,,0.00,461.000000,,2013-08-12 21:12:00,
2013-08-12 17:22:00,74.0,52.0,-100.00,West,273,4.0,11.0,47,0.00,,,0.00,461.000000,,2013-08-12 21:22:00,
2013-08-12 17:52:00,71.0,54.0,-100.00,West,274,2.0,10.0,55,0.00,,,0.00,249.000000,,2013-08-12 21:52:00,
2013-08-12 18:02:00,71.0,54.0,-100.00,West,274,2.0,10.0,55,0.00,,,0.00,249.000000,,2013-08-12 22:02:00,
2013-08-12 18:11:00,71.0,54.0,-100.00,West,274,2.0,10.0,55,0.00,,,0.00,249.000000,,2013-08-12 22:11:00,
2013-08-12 18:22:00,71.0,54.0,-100.00,West,274,2.0,10.0,55,0.00,,,0.00,249.000000,,2013-08-12 22:22:00,
2013-08-12 18:53:00,73.0,57.0,-100.00,WNW,285,2.0,5.0,57,0.00,,,0.00,215.000000,,2013-08-12 22:53:00,
2013-08-12 19:02:00,73.0,57.0,-100.00,WNW,285,2.0,5.0,57,0.00,,,0.00,215.000000,,2013-08-12 23:02:00,
2013-08-12 19:11:00,73.0,57.0,-100.00,WNW,285,2.0,5.0,57,0.00,,,0.00,215.000000,,2013-08-12 23:11:00,
2013-08-12 19:22:00,73.0,57.0,-100.00,WNW,285,2.0,5.0,57,0.00,,,0.00,215.000000,,2013-08-12 23:22:00,
2013-08-12 19:54:00,68.0,59.0,-100.00,SSW,203,1.0,7.0,72,0.00,,,0.00,154.000000,,2013-08-12 23:54:00,
2013-08-12 20:03:00,68.0,59.0,-100.00,SSW,203,1.0,7.0,72,0.00,,,0.00,154.000000,,2013-08-13 00:03:00,
2013-08-12 20:12:00,68.0,59.0,-100.00,SSW,203,1.0,7.0,72,0.00,,,0.00,154.000000,,2013-08-13 00:12:00,
2013-08-12 20:24:00,68.0,59.0,-100.00,SSW,203,1.0,7.0,72,0.00,,,0.00,154.000000,,2013-08-13 00:24:00,
2013-08-12 20:54:00,58.0,55.0,-100.00,ESE,123,3.0,4.0,91,0.00,,,0.00,11.000000,,2013-08-13 00:54:00,
2013-08-12 21:03:00,58.0,55.0,-100.00,ESE,123,3.0,4.0,91,0.00,,,0.00,11.000000,,2013-08-13 01:03:00,
2013-08-12 21:13:00,58.0,55.0,-100.00,ESE,123,3.0,4.0,91,0.00,,,0.00,11.000000,,2013-08-13 01:13:00,
2013-08-12 21:23:00,58.0,55.0,-100.00,ESE,123,3.0,4.0,91,0.00,,,0.00,11.000000,,2013-08-13 01:23:00,
2013-08-12 21:55:00,56.0,54.0,-100.00,SE,130,2.0,4.0,94,0.00,,,0.00,0.000000,,2013-08-13 01:55:00,
2013-08-12 22:02:00,56.0,54.0,-100.00,SE,130,2.0,4.0,94,0.00,,,0.00,0.000000,,2013-08-13 02:02:00,
2013-08-12 22:11:00,56.0,54.0,-100.00,SE,130,2.0,4.0,94,0.00,,,0.00,0.000000,,2013-08-13 02:11:00,
2013-08-12 22:22:00,56.0,54.0,-100.00,SE,130,2.0,4.0,94,0.00,,,0.00,0.000000,,2013-08-13 02:22:00,
2013-08-12 22:52:00,54.0,53.0,-100.00,SSE,161,2.0,3.0,97,0.00,,,0.00,0.000000,,2013-08-13 02:52:00,
2013-08-12 23:02:00,54.0,53.0,-100.00,SSE,161,2.0,3.0,97,0.00,,,0.00,0.000000,,2013-08-13 03:02:00,
2013-08-12 23:11:00,54.0,53.0,-100.00,SSE,161,2.0,3.0,97,0.00,,,0.00,0.000000,,2013-08-13 03:11:00,
2013-08-12 23:22:00,54.0,53.0,-100.00,SSE,161,2.0,3.0,97,0.00,,,0.00,0.000000,,2013-08-13 03:22:00,
2013-08-12 23:54:00,53.0,52.0,-100.00,ESE,104,1.0,2.0,98,0.00,,,0.00,0.000000,,2013-08-13 03:54:00,